Time;durP1;ratioP1;P1;durP2;ratioP2;P2;SDS_P1;SDS_P2;PMS_P1;PMS_P2;Temp;Humidity;BMP_temperature;BMP_pressure;BME280_temperature;BME280_humidity;BME280_pressure;Samples;Min_cycle;Max_cycle;Signal;HPM_P1;HPM_P2
2023/01/29 05:36:32;;;;;;;5.55;5.05;;;22.00;70.20;;;;;;6198169;28;92456;-95
2023/01/29 05:39:37;;;;;;;6.32;5.72;;;22.00;70.10;;;;;;6201104;28;95461;-95
2023/01/29 05:42:39;;;;;;;6.68;5.97;;;22.10;70.20;;;;;;6203365;28;94089;-94
2023/01/29 05:45:43;;;;;;;6.70;6.00;;;22.10;70.10;;;;;;6195896;28;93934;-94
2023/01/29 05:48:48;;;;;;;6.72;6.03;;;22.10;70.10;;;;;;6208967;28;92908;-95
2023/01/29 05:55:18;;;;;;;7.20;6.10;;;22.10;68.70;;;;;;6213054;28;94687;-95
2023/01/29 05:58:30;;;;;;;6.82;5.50;;;22.10;68.30;;;;;;6213958;28;94532;-95
2023/01/29 06:01:33;;;;;;;7.47;5.80;;;22.10;68.90;;;;;;6210962;28;92252;-95
2023/01/29 08:45:26;;;;;;;37.55;24.83;;;22.70;71.50;;;;;;6204312;28;92364;-95
2023/01/29 08:51:46;;;;;;;45.22;27.25;;;22.80;71.50;;;;;;6202011;28;95436;-95
2023/01/29 08:58:04;;;;;;;41.72;26.90;;;22.80;72.00;;;;;;6203215;28;94160;-95
2023/01/29 09:01:20;;;;;;;41.03;25.35;;;22.80;71.80;;;;;;6207622;28;94667;-95
2023/01/29 09:04:23;;;;;;;42.20;25.52;;;22.80;71.50;;;;;;6215002;28;92926;-95
2023/01/29 09:07:25;;;;;;;42.67;24.48;;;22.80;71.20;;;;;;6222018;28;94299;-95
2023/01/29 09:10:32;;;;;;;41.95;23.63;;;22.80;71.10;;;;;;6213495;28;95937;-95
2023/01/29 09:13:38;;;;;;;38.80;23.63;;;22.90;71.20;;;;;;6212486;28;93724;-95
2023/01/29 09:17:00;;;;;;;33.90;21.38;;;22.90;71.20;;;;;;6217564;28;93013;-95
2023/01/29 09:26:35;;;;;;;33.45;20.60;;;22.90;71.20;;;;;;6215245;28;94657;-95
2023/01/29 09:29:44;;;;;;;33.85;20.50;;;23.00;71.20;;;;;;6206902;28;94829;-96
2023/01/29 09:32:47;;;;;;;28.73;18.45;;;22.90;71.10;;;;;;6200109;28;94285;-95
2023/01/29 09:35:57;;;;;;;28.92;18.02;;;23.00;71.10;;;;;;6212077;28;92492;-95
2023/01/29 09:39:00;;;;;;;26.67;17.30;;;23.00;71.00;;;;;;6200423;28;94315;-95
2023/01/29 09:42:12;;;;;;;28.58;17.73;;;23.00;71.00;;;;;;6203185;28;94059;-95
2023/01/29 09:56:01;;;;;;;187.13;58.78;;;23.10;88.60;;;;;;6206410;28;96485;-96
2023/01/29 10:06:20;;;;;;;117.57;42.97;;;23.40;79.60;;;;;;6196023;28;94565;-96
2023/01/29 10:09:48;;;;;;;96.22;38.58;;;23.40;75.90;;;;;;6205798;28;93233;-96
2023/01/29 10:16:28;;;;;;;98.22;36.65;;;23.40;75.00;;;;;;6210311;28;94419;-96
2023/01/29 10:20:00;;;;;;;92.45;35.80;;;23.40;75.00;;;;;;6212811;28;92256;-96
2023/01/29 10:23:16;;;;;;;76.22;32.97;;;23.40;75.50;;;;;;6197470;28;94580;-96
2023/01/29 10:36:24;;;;;;;70.22;30.00;;;23.40;74.40;;;;;;6203980;28;94627;-96
2023/01/29 10:54:17;;;;;;;57.53;25.13;;;23.40;73.50;;;;;;6211770;28;93929;-96
2023/01/29 11:04:03;;;;;;;35.72;16.67;;;23.40;68.20;;;;;;6187300;28;95626;-96
2023/01/29 11:18:37;;;;;;;31.80;16.23;;;23.30;69.50;;;;;;6190541;28;94693;-95
2023/01/29 11:25:32;;;;;;;27.92;14.93;;;23.30;70.90;;;;;;6188672;28;92293;-96
2023/01/29 11:31:57;;;;;;;26.52;14.15;;;23.30;70.30;;;;;;6196451;28;92284;-96
2023/01/29 11:35:01;;;;;;;29.65;14.70;;;23.30;70.30;;;;;;6192572;28;95148;-96
2023/01/29 11:46:14;;;;;;;29.20;14.35;;;23.30;71.30;;;;;;6197753;28;95612;-96
2023/01/29 11:53:34;;;;;;;30.17;13.93;;;23.30;71.50;;;;;;6196352;28;96201;-96
2023/01/29 11:57:06;;;;;;;28.23;13.05;;;23.30;71.50;;;;;;6204385;28;92118;-96
2023/01/29 12:04:04;;;;;;;25.52;12.45;;;23.30;71.60;;;;;;6201281;28;94372;-95
2023/01/29 12:10:35;;;;;;;25.77;12.30;;;23.20;71.70;;;;;;6206055;28;93016;-95
2023/01/29 12:13:51;;;;;;;24.80;11.82;;;23.10;71.80;;;;;;6194754;28;94007;-95
2023/01/29 12:17:00;;;;;;;24.33;12.55;;;23.10;71.80;;;;;;6202260;28;93287;-95
2023/01/29 12:20:13;;;;;;;22.42;11.43;;;23.10;71.90;;;;;;6186922;28;95578;-96
2023/01/29 12:33:41;;;;;;;20.13;10.70;;;23.00;71.70;;;;;;6193604;28;94382;-95
2023/01/29 12:41:01;;;;;;;23.80;10.60;;;23.00;72.00;;;;;;6195490;28;95367;-95
2023/01/29 12:44:11;;;;;;;21.38;10.20;;;23.00;72.00;;;;;;6188093;28;93351;-95
2023/01/29 12:50:43;;;;;;;20.92;10.13;;;23.00;71.90;;;;;;6214304;28;94419;-96
2023/01/29 12:57:22;;;;;;;18.23;9.52;;;23.00;71.90;;;;;;6215428;28;94430;-96
2023/01/29 13:08:10;;;;;;;19.73;9.38;;;23.00;71.70;;;;;;6207958;28;95176;-95
2023/01/29 13:11:22;;;;;;;18.52;9.13;;;23.10;71.70;;;;;;6210894;28;93443;-95
2023/01/29 13:14:30;;;;;;;17.50;9.00;;;23.10;71.70;;;;;;6210295;28;93977;-96
2023/01/29 13:20:54;;;;;;;16.33;7.78;;;23.10;71.80;;;;;;6201287;28;95483;-95
2023/01/29 13:32:06;;;;;;;14.52;7.80;;;23.10;72.00;;;;;;6209829;28;94455;-96
2023/01/29 13:42:49;;;;;;;15.38;7.82;;;23.10;72.20;;;;;;6189835;28;94133;-96
2023/01/29 14:03:55;;;;;;;12.30;6.90;;;23.00;67.70;;;;;;6193689;28;92758;-95
2023/01/29 14:07:01;;;;;;;12.98;6.97;;;23.00;68.30;;;;;;6195242;28;95577;-96
2023/01/29 14:10:14;;;;;;;11.52;6.18;;;23.00;68.60;;;;;;6203838;28;93161;-96
2023/01/29 14:13:35;;;;;;;12.50;6.45;;;23.00;68.90;;;;;;6193765;28;94528;-96
2023/01/29 14:16:38;;;;;;;12.77;6.28;;;22.90;69.00;;;;;;6205880;28;94657;-96
2023/01/29 14:19:48;;;;;;;10.85;6.50;;;23.00;69.30;;;;;;6187856;28;93893;-96
2023/01/29 14:22:58;;;;;;;7.90;5.72;;;23.00;69.40;;;;;;6182079;28;94728;-96
2023/01/29 14:26:05;;;;;;;12.20;6.43;;;23.00;69.50;;;;;;6193067;28;94761;-96
2023/01/29 14:29:17;;;;;;;9.32;5.60;;;23.00;69.60;;;;;;6204733;28;97137;-95
2023/01/29 14:32:23;;;;;;;10.70;5.60;;;23.00;69.80;;;;;;6205335;28;93507;-96
2023/01/29 14:35:32;;;;;;;10.77;5.80;;;23.00;69.80;;;;;;6191765;28;92277;-95
2023/01/29 14:38:35;;;;;;;8.20;5.35;;;23.00;70.00;;;;;;6186043;28;95737;-96
2023/01/29 14:41:40;;;;;;;8.55;5.90;;;23.00;70.00;;;;;;6205647;28;94628;-96
2023/01/29 14:44:59;;;;;;;7.93;5.72;;;23.00;70.10;;;;;;6206434;28;94145;-95
2023/01/29 14:48:04;;;;;;;10.77;6.22;;;23.10;70.20;;;;;;6208012;28;94018;-96
2023/01/29 14:51:10;;;;;;;10.82;6.20;;;23.00;70.10;;;;;;6208874;28;92703;-96
2023/01/29 14:54:21;;;;;;;9.50;6.40;;;23.00;70.20;;;;;;6207339;28;94213;-96
2023/01/29 14:57:24;;;;;;;8.82;6.57;;;23.00;70.20;;;;;;6207596;28;94375;-95
2023/01/29 15:00:30;;;;;;;9.43;6.43;;;23.10;70.30;;;;;;6206370;28;95364;-96
2023/01/29 15:03:42;;;;;;;8.57;6.68;;;23.00;70.30;;;;;;6207612;28;92739;-96
2023/01/29 15:06:48;;;;;;;9.00;6.47;;;23.00;70.30;;;;;;6207326;28;93374;-96
2023/01/29 15:09:58;;;;;;;9.80;6.90;;;23.10;70.40;;;;;;6207319;28;95977;-96
2023/01/29 15:13:04;;;;;;;9.27;7.20;;;23.00;70.40;;;;;;6206786;28;94099;-96
2023/01/29 15:16:16;;;;;;;8.65;7.28;;;23.10;70.50;;;;;;6207205;28;93005;-95
2023/01/29 15:19:25;;;;;;;9.73;7.55;;;23.10;70.50;;;;;;6206759;28;92196;-96
2023/01/29 15:22:31;;;;;;;10.00;7.75;;;23.10;70.50;;;;;;6207886;28;95335;-95
2023/01/29 15:25:37;;;;;;;9.75;7.75;;;23.10;70.50;;;;;;6207138;28;94151;-96
2023/01/29 15:28:40;;;;;;;9.90;8.20;;;23.10;70.50;;;;;;6207074;28;94489;-96
2023/01/29 15:31:43;;;;;;;8.70;7.68;;;23.10;70.40;;;;;;6207095;28;95443;-96
2023/01/29 15:34:46;;;;;;;9.18;8.13;;;23.10;70.40;;;;;;6206717;28;93178;-96
2023/01/29 15:38:02;;;;;;;9.60;8.25;;;23.10;70.40;;;;;;6205848;28;93345;-96
2023/01/29 15:41:17;;;;;;;9.57;8.63;;;23.10;70.40;;;;;;6206257;28;94345;-96
2023/01/29 15:44:22;;;;;;;8.73;7.82;;;23.00;70.30;;;;;;6206803;28;93001;-95
2023/01/29 15:47:28;;;;;;;10.93;8.48;;;23.10;70.40;;;;;;6206141;28;95068;-96
2023/01/29 15:50:36;;;;;;;11.40;9.38;;;23.10;70.40;;;;;;6206507;28;94615;-95
2023/01/29 15:53:46;;;;;;;10.60;9.00;;;23.10;70.40;;;;;;6207306;28;92346;-95
2023/01/29 15:56:53;;;;;;;10.85;9.40;;;23.10;70.40;;;;;;6206510;28;93591;-96
2023/01/29 15:59:59;;;;;;;11.10;9.25;;;23.10;70.40;;;;;;6205683;28;93124;-96
2023/01/29 16:03:13;;;;;;;10.63;9.50;;;23.00;70.30;;;;;;6205657;28;93791;-96
2023/01/29 16:06:17;;;;;;;10.07;9.07;;;23.00;70.30;;;;;;6206248;28;94154;-95
2023/01/29 16:09:26;;;;;;;11.15;9.85;;;23.10;70.30;;;;;;6206211;28;93095;-95
2023/01/29 16:12:29;;;;;;;11.27;9.90;;;23.10;70.30;;;;;;6206787;28;93481;-96
2023/01/29 16:15:35;;;;;;;11.07;9.98;;;23.10;70.30;;;;;;6205996;28;94201;-95
2023/01/29 16:18:41;;;;;;;10.50;9.45;;;23.00;70.30;;;;;;6205343;28;93302;-95
2023/01/29 16:21:45;;;;;;;11.70;10.50;;;23.10;70.40;;;;;;6206000;28;93144;-96
2023/01/29 16:24:52;;;;;;;10.82;9.68;;;23.10;70.30;;;;;;6205889;28;93121;-96
2023/01/29 16:27:55;;;;;;;11.32;10.05;;;23.10;70.20;;;;;;6206335;28;95713;-95
2023/01/29 16:30:59;;;;;;;11.05;9.95;;;23.10;70.20;;;;;;6209788;28;96193;-95
2023/01/29 16:34:09;;;;;;;11.82;10.32;;;23.10;70.20;;;;;;6210030;28;94716;-95
2023/01/29 16:37:22;;;;;;;11.88;10.68;;;23.10;70.10;;;;;;6208088;28;93358;-95
2023/01/29 16:40:33;;;;;;;10.95;9.77;;;23.10;70.10;;;;;;6209255;28;92317;-95
2023/01/29 16:43:52;;;;;;;11.20;9.98;;;23.10;70.10;;;;;;6210336;28;93391;-96
2023/01/29 16:46:55;;;;;;;11.98;10.50;;;23.10;70.10;;;;;;6209326;28;94403;-95
2023/01/29 16:49:59;;;;;;;11.93;10.75;;;23.10;70.10;;;;;;6209396;28;93754;-96
2023/01/29 16:53:04;;;;;;;11.48;10.40;;;23.10;70.00;;;;;;6208453;28;94167;-94
2023/01/29 16:56:09;;;;;;;11.50;10.40;;;23.10;70.00;;;;;;6209391;28;93611;-94
2023/01/29 16:59:19;;;;;;;11.05;10.02;;;23.10;70.00;;;;;;6209349;28;93553;-96
2023/01/29 17:02:26;;;;;;;11.60;10.50;;;23.10;70.00;;;;;;6209049;28;93090;-96
2023/01/29 17:05:32;;;;;;;11.27;10.18;;;23.10;70.00;;;;;;6208068;28;94826;-95
2023/01/29 17:08:36;;;;;;;11.30;10.20;;;23.10;70.00;;;;;;6208850;28;93119;-95
2023/01/29 17:11:52;;;;;;;11.00;9.90;;;23.10;70.00;;;;;;6209101;28;93351;-95
2023/01/29 17:14:57;;;;;;;10.77;9.68;;;23.10;69.90;;;;;;6209945;28;92814;-95
2023/01/29 17:18:01;;;;;;;11.50;10.30;;;23.10;69.60;;;;;;6209249;28;94921;-95
2023/01/29 17:21:05;;;;;;;12.10;10.85;;;23.10;69.90;;;;;;6208760;28;92936;-95
2023/01/29 17:24:08;;;;;;;11.27;10.10;;;23.10;70.30;;;;;;6208155;28;93124;-95
2023/01/29 17:27:19;;;;;;;11.05;9.82;;;23.10;69.80;;;;;;6207761;28;93406;-95
2023/01/29 17:30:27;;;;;;;11.15;10.05;;;23.10;69.70;;;;;;6208873;28;93451;-95
2023/01/29 17:33:30;;;;;;;11.23;9.73;;;23.10;69.60;;;;;;6208690;28;93456;-95
2023/01/29 17:36:33;;;;;;;11.40;9.57;;;23.10;69.40;;;;;;6206728;28;93065;-95
2023/01/29 17:39:39;;;;;;;12.02;10.18;;;23.10;69.40;;;;;;6207610;28;93097;-96
2023/01/29 17:42:44;;;;;;;10.63;9.52;;;23.10;69.40;;;;;;6207770;28;92413;-96
2023/01/29 17:45:48;;;;;;;11.85;9.98;;;23.10;69.40;;;;;;6209071;28;93484;-95
2023/01/29 17:48:51;;;;;;;10.25;9.18;;;23.10;69.40;;;;;;6208152;28;93461;-93
2023/01/29 17:51:55;;;;;;;10.25;9.13;;;23.10;69.40;;;;;;6208462;28;93386;-95
2023/01/29 17:55:00;;;;;;;10.55;9.45;;;23.10;69.40;;;;;;6208298;28;93302;-95
2023/01/29 17:58:07;;;;;;;9.98;8.98;;;23.10;69.40;;;;;;6209446;28;92174;-95
2023/01/29 18:01:13;;;;;;;9.52;8.57;;;23.10;69.50;;;;;;6208891;28;93637;-95
2023/01/29 18:04:18;;;;;;;9.80;8.75;;;23.10;69.40;;;;;;6208136;28;92990;-95
2023/01/29 18:07:21;;;;;;;9.90;8.90;;;23.10;69.50;;;;;;6208019;28;94195;-95
2023/01/29 18:10:24;;;;;;;10.15;9.15;;;23.10;69.40;;;;;;6208635;28;92132;-95
2023/01/29 18:13:28;;;;;;;11.15;9.13;;;23.20;69.50;;;;;;6208781;28;92112;-95
2023/01/29 18:16:35;;;;;;;10.48;9.38;;;23.10;69.40;;;;;;6208987;28;94527;-95
2023/01/29 18:19:38;;;;;;;9.82;8.93;;;23.10;69.40;;;;;;6207896;28;96038;-95
2023/01/29 18:22:41;;;;;;;9.50;8.60;;;23.10;69.50;;;;;;6207691;28;93356;-94
2023/01/29 18:25:45;;;;;;;9.48;8.52;;;23.10;69.50;;;;;;6208147;28;93318;-95
2023/01/29 18:28:51;;;;;;;9.52;8.57;;;23.00;69.50;;;;;;6208311;28;93835;-95
2023/01/29 18:31:54;;;;;;;8.68;7.88;;;23.00;69.50;;;;;;6208875;28;93487;-95
2023/01/29 18:34:58;;;;;;;9.40;8.50;;;23.00;69.60;;;;;;6209986;28;93249;-95
2023/01/29 18:38:02;;;;;;;9.27;8.38;;;23.00;69.60;;;;;;6209407;28;94233;-96
2023/01/29 18:41:09;;;;;;;9.55;8.65;;;23.00;70.00;;;;;;6206838;28;93668;-95
2023/01/29 18:44:14;;;;;;;9.15;8.25;;;23.00;70.60;;;;;;6207752;28;93213;-95
2023/01/29 18:47:18;;;;;;;9.93;8.88;;;22.90;70.50;;;;;;6207879;28;94442;-95
2023/01/29 18:50:22;;;;;;;8.93;8.02;;;23.00;70.20;;;;;;6208325;28;93102;-95
2023/01/29 18:53:26;;;;;;;15.77;8.93;;;22.90;70.10;;;;;;6207727;28;94740;-94
2023/01/29 18:56:30;;;;;;;13.25;8.95;;;22.90;69.60;;;;;;6206838;28;92751;-95
2023/01/29 18:59:34;;;;;;;13.18;8.40;;;23.00;68.80;;;;;;6207831;28;93061;-95
2023/01/29 19:02:38;;;;;;;9.55;7.93;;;22.90;69.10;;;;;;6207531;28;92915;-96
2023/01/29 19:05:42;;;;;;;11.98;8.20;;;22.90;69.90;;;;;;6207948;28;93010;-95
2023/01/29 19:08:46;;;;;;;9.50;8.00;;;22.90;70.40;;;;;;6207061;28;94510;-95
2023/01/29 19:11:50;;;;;;;10.75;8.55;;;22.90;70.50;;;;;;6207046;28;93407;-95
2023/01/29 19:14:55;;;;;;;10.00;8.20;;;22.90;70.60;;;;;;6206940;28;93610;-96
2023/01/29 19:17:58;;;;;;;10.80;8.02;;;22.90;70.50;;;;;;6207462;28;93512;-95
2023/01/29 19:21:07;;;;;;;9.43;7.88;;;23.00;70.50;;;;;;6207398;28;93136;-95
2023/01/29 19:24:12;;;;;;;10.13;8.32;;;23.00;70.40;;;;;;6207574;28;93211;-96
2023/01/29 19:27:16;;;;;;;11.02;8.10;;;23.00;70.30;;;;;;6207303;28;93030;-96
2023/01/29 19:30:21;;;;;;;8.45;7.50;;;23.00;70.20;;;;;;6207566;28;92630;-94
2023/01/29 19:33:24;;;;;;;9.52;7.50;;;23.00;70.20;;;;;;6207709;28;93060;-96
2023/01/29 19:36:27;;;;;;;8.15;7.35;;;23.00;70.10;;;;;;6207475;28;92277;-96
2023/01/29 19:39:32;;;;;;;8.65;7.53;;;23.00;70.00;;;;;;6204476;28;95506;-96
2023/01/29 19:42:36;;;;;;;9.02;7.95;;;23.00;70.10;;;;;;6206078;28;92774;-95
2023/01/29 19:45:40;;;;;;;8.43;7.20;;;23.10;70.10;;;;;;6206507;28;93232;-95
2023/01/29 19:48:44;;;;;;;9.77;7.30;;;23.10;70.00;;;;;;6207479;28;92944;-95
2023/01/29 19:51:47;;;;;;;7.97;7.18;;;23.10;69.90;;;;;;6207327;28;92209;-96
2023/01/29 19:54:50;;;;;;;9.27;7.25;;;23.10;70.00;;;;;;6205854;28;94197;-95
2023/01/29 19:57:56;;;;;;;7.82;7.07;;;23.10;69.90;;;;;;6203384;28;92116;-96
2023/01/29 20:01:03;;;;;;;9.68;7.53;;;23.10;69.80;;;;;;6207358;28;92836;-96
2023/01/29 20:04:07;;;;;;;8.52;6.90;;;23.10;69.90;;;;;;6204946;28;93401;-95
2023/01/29 20:07:10;;;;;;;8.25;6.97;;;23.10;70.00;;;;;;6205029;28;92541;-96
2023/01/29 20:10:16;;;;;;;7.93;7.13;;;23.10;70.00;;;;;;6205921;28;95182;-95
2023/01/29 20:13:21;;;;;;;7.72;6.93;;;23.10;70.00;;;;;;6205774;28;94050;-96
2023/01/29 20:16:26;;;;;;;8.07;7.38;;;23.10;70.10;;;;;;6206868;28;95655;-96
2023/01/29 20:19:29;;;;;;;7.85;7.05;;;23.10;70.00;;;;;;6205798;28;93194;-96
2023/01/29 20:22:33;;;;;;;8.57;7.30;;;23.10;70.00;;;;;;6206511;28;93066;-96
2023/01/29 20:25:37;;;;;;;7.78;7.05;;;23.10;70.00;;;;;;6205287;28;92429;-95
2023/01/29 20:28:42;;;;;;;7.88;7.05;;;23.10;70.00;;;;;;6205950;28;92091;-96
2023/01/29 20:31:46;;;;;;;9.40;7.07;;;23.10;70.00;;;;;;6206555;28;93903;-95
2023/01/29 20:34:50;;;;;;;7.75;7.05;;;23.10;70.00;;;;;;6205876;28;94376;-95
2023/01/29 20:37:53;;;;;;;8.02;7.22;;;23.10;70.00;;;;;;6206266;28;93409;-96
2023/01/29 20:41:02;;;;;;;7.65;6.95;;;23.10;70.00;;;;;;6205670;28;94878;-96
2023/01/29 20:44:05;;;;;;;7.43;6.78;;;23.20;70.00;;;;;;6205908;28;93470;-95
2023/01/29 20:47:13;;;;;;;8.45;7.47;;;23.10;70.00;;;;;;6205457;28;93020;-95
2023/01/29 20:50:18;;;;;;;8.93;7.03;;;23.10;70.00;;;;;;6205956;28;92606;-96
2023/01/29 20:53:21;;;;;;;8.65;7.85;;;23.10;70.00;;;;;;6205384;28;93257;-95
2023/01/29 20:56:25;;;;;;;8.48;7.65;;;23.10;70.00;;;;;;6204602;28;93347;-95
2023/01/29 20:59:28;;;;;;;8.23;7.43;;;23.10;70.00;;;;;;6205127;28;93379;-95
2023/01/29 21:02:33;;;;;;;8.57;7.68;;;23.20;70.00;;;;;;6206422;28;92332;-96
2023/01/29 21:05:36;;;;;;;8.95;7.57;;;23.10;70.00;;;;;;6204974;28;92824;-95
2023/01/29 21:08:40;;;;;;;8.35;7.55;;;23.20;70.00;;;;;;6205372;28;93900;-96
2023/01/29 21:11:44;;;;;;;8.82;8.02;;;23.10;70.00;;;;;;6204767;28;93598;-95
2023/01/29 21:14:48;;;;;;;8.40;7.60;;;23.20;70.00;;;;;;6205651;28;93702;-95
2023/01/29 21:17:53;;;;;;;8.80;8.00;;;23.20;70.00;;;;;;6208293;28;93286;-95
2023/01/29 21:20:58;;;;;;;8.32;7.53;;;23.20;70.00;;;;;;6208315;28;96567;-95
2023/01/29 21:24:01;;;;;;;8.75;7.95;;;23.20;70.00;;;;;;6208138;28;92597;-96
2023/01/29 21:27:04;;;;;;;8.75;7.95;;;23.20;70.00;;;;;;6208959;28;94762;-95
2023/01/29 21:30:08;;;;;;;8.98;8.18;;;23.20;69.90;;;;;;6209964;28;93228;-96
2023/01/29 21:33:14;;;;;;;9.68;8.77;;;23.10;70.00;;;;;;6210163;28;91466;-95
2023/01/29 21:36:17;;;;;;;9.60;8.68;;;23.10;69.90;;;;;;6209130;28;94086;-95
2023/01/29 21:39:23;;;;;;;9.63;8.65;;;23.10;70.00;;;;;;6209443;28;92915;-95
2023/01/29 21:45:45;;;;;;;11.07;9.98;;;23.10;70.00;;;;;;6208956;28;92133;-95
2023/01/29 21:48:49;;;;;;;10.77;9.77;;;23.10;70.10;;;;;;6208124;28;92991;-95
2023/01/29 21:51:53;;;;;;;11.65;10.55;;;23.10;70.10;;;;;;6210156;28;93259;-96
